Time;durP1;ratioP1;P1;durP2;ratioP2;P2;SDS_P1;SDS_P2;PMS_P1;PMS_P2;Temp;Humidity;BMP_temperature;BMP_pressure;BME280_temperature;BME280_humidity;BME280_pressure;Samples;Min_cycle;Max_cycle;Signal;HPM_P1;HPM_P2
2022/11/12 00:00:16;;;;;;;2.50;2.17;;;;;;;8.07;64.52;102588.97;5127006;28;20023;-82
2022/11/12 00:02:46;;;;;;;4.95;2.38;;;;;;;8.04;64.82;102581.97;5144912;28;20034;-84
2022/11/12 00:05:17;;;;;;;1.77;1.23;;;;;;;7.98;64.89;102575.75;5111470;28;20402;-81
2022/11/12 00:07:48;;;;;;;0.82;0.82;;;;;;;8.04;64.70;102586.31;5131563;28;20026;-80
2022/11/12 00:10:18;;;;;;;0.85;0.85;;;;;;;7.97;65.31;102581.88;5142725;28;20414;-82
2022/11/12 00:12:49;;;;;;;1.08;1.08;;;;;;;7.99;64.59;102578.41;5136908;28;20026;-80
2022/11/12 00:15:20;;;;;;;0.32;0.32;;;;;;;8.00;64.76;102584.50;5150473;28;20037;-80
2022/11/12 00:17:51;;;;;;;2.47;1.05;;;;;;;7.93;64.98;102588.78;5148073;28;20035;-82
2022/11/12 00:20:21;;;;;;;0.98;0.98;;;;;;;7.90;64.99;102582.63;5175427;28;20023;-78
2022/11/12 00:22:52;;;;;;;1.02;0.95;;;;;;;7.88;65.03;102585.22;5149852;28;20050;-77
2022/11/12 00:25:23;;;;;;;0.75;0.75;;;;;;;7.91;64.64;102585.28;5137320;28;20038;-79
2022/11/12 00:28:05;;;;;;;2.08;1.95;;;;;;;7.87;65.01;102578.22;5147891;28;20034;-79
2022/11/12 00:30:39;;;;;;;1.05;1.05;;;;;;;7.86;64.68;102574.75;5143526;28;20047;-81
2022/11/12 00:33:10;;;;;;;1.50;1.45;;;;;;;7.86;64.82;102576.47;5126538;28;20110;-83
2022/11/12 00:35:40;;;;;;;1.65;0.82;;;;;;;7.86;64.65;102584.31;5129143;28;20458;-79
2022/11/12 00:38:11;;;;;;;0.98;0.93;;;;;;;7.78;65.08;102581.59;5136236;28;20494;-79
2022/11/12 00:40:42;;;;;;;0.40;0.40;;;;;;;7.77;64.81;102582.47;5130302;28;20575;-83
2022/11/12 00:43:12;;;;;;;0.68;0.68;;;;;;;7.76;64.82;102585.06;5145532;28;20184;-79
2022/11/12 00:45:42;;;;;;;1.17;1.17;;;;;;;7.78;64.89;102592.06;5130141;28;20106;-82
2022/11/12 00:48:13;;;;;;;9.68;2.42;;;;;;;7.73;64.78;102593.72;5145733;28;20043;-80
2022/11/12 00:50:44;;;;;;;1.02;1.02;;;;;;;7.74;64.60;102589.38;5126039;28;20054;-82
2022/11/12 00:53:14;;;;;;;0.40;0.40;;;;;;;7.75;64.54;102591.13;5142898;28;20058;-82
2022/11/12 00:55:45;;;;;;;0.63;0.63;;;;;;;7.65;65.04;102591.00;5131878;28;20103;-80
2022/11/12 00:58:16;;;;;;;1.25;1.15;;;;;;;7.64;64.64;102602.31;5135887;28;20043;-80
2022/11/12 01:00:47;;;;;;;1.05;1.02;;;;;;;7.62;64.90;102595.31;5153663;28;20596;-79
2022/11/12 01:03:18;;;;;;;1.25;1.23;;;;;;;7.65;64.72;102600.56;5134465;28;20518;-81
2022/11/12 01:05:48;;;;;;;0.93;0.90;;;;;;;7.65;64.45;102600.56;5148114;28;20142;-81
2022/11/12 01:08:19;;;;;;;0.75;0.75;;;;;;;7.67;64.69;102607.59;5148653;28;20062;-84
2022/11/12 01:10:50;;;;;;;1.17;1.17;;;;;;;7.61;64.93;102611.81;5163785;28;20082;-83
2022/11/12 01:13:21;;;;;;;3.40;1.48;;;;;;;7.55;64.79;102608.28;5148190;28;20050;-83
2022/11/12 01:15:52;;;;;;;1.50;1.40;;;;;;;7.55;64.57;102618.72;5148509;28;20121;-81
2022/11/12 01:18:22;;;;;;;0.90;0.90;;;;;;;7.51;65.22;102605.59;5117310;28;20050;-80
2022/11/12 01:20:54;;;;;;;0.45;0.45;;;;;;;7.48;65.04;102614.22;5133016;28;20038;-81
2022/11/12 01:23:24;;;;;;;0.88;0.82;;;;;;;7.50;64.92;102609.91;5155559;28;20050;-81
2022/11/12 01:25:55;;;;;;;1.08;1.08;;;;;;;7.39;65.06;102607.13;5145752;28;20031;-81
2022/11/12 01:28:27;;;;;;;1.42;1.33;;;;;;;7.33;65.20;102599.22;5144362;28;20031;-82
2022/11/12 01:31:11;;;;;;;0.50;0.50;;;;;;;7.45;64.89;102600.25;5162658;28;20039;-78
2022/11/12 01:33:43;;;;;;;0.60;0.60;;;;;;;7.39;64.72;102601.91;5157527;28;20027;-80
2022/11/12 01:36:15;;;;;;;0.77;0.77;;;;;;;7.44;64.44;102601.13;5138023;28;20069;-81
2022/11/12 01:38:47;;;;;;;1.50;1.42;;;;;;;7.34;65.59;102590.53;5145665;28;20039;-79
2022/11/12 01:41:21;;;;;;;0.70;0.70;;;;;;;7.46;64.89;102600.28;5145653;28;20085;-82
2022/11/12 01:44:28;;;;;;;1.52;1.42;;;;;;;7.28;65.13;102593.00;5131691;28;20062;-80
2022/11/12 01:47:44;;;;;;;1.05;0.95;;;;;;;7.32;64.27;102599.16;5107062;28;20058;-81
2022/11/12 01:50:30;;;;;;;0.40;0.40;;;;;;;7.34;64.72;102598.34;5131968;28;20042;-80
2022/11/12 01:53:07;;;;;;;0.70;0.70;;;;;;;7.34;64.93;102594.84;5143497;28;20041;-83
2022/11/12 01:55:38;;;;;;;0.50;0.50;;;;;;;7.33;65.38;102596.59;5112515;28;20189;-82
2022/11/12 01:58:13;;;;;;;0.93;0.93;;;;;;;7.19;65.38;102593.75;5129585;28;20049;-80
2022/11/12 02:00:46;;;;;;;1.02;1.02;;;;;;;7.28;65.08;102587.78;5162091;28;20019;-80
2022/11/12 02:03:22;;;;;;;;;;;;;;;7.24;65.08;102597.31;5122710;28;20486;-80
2022/11/12 02:06:00;;;;;;;1.98;1.85;;;;;;;7.22;65.12;102591.19;5145385;28;19976;-80
2022/11/12 02:08:32;;;;;;;1.05;1.05;;;;;;;7.23;65.00;102590.31;5134795;28;20053;-82
2022/11/12 02:11:19;;;;;;;1.10;1.10;;;;;;;7.20;65.10;102590.28;5140937;28;20034;-80
2022/11/12 02:14:03;;;;;;;0.88;0.88;;;;;;;7.18;65.03;102588.50;5136170;28;20031;-80
2022/11/12 02:16:40;;;;;;;1.05;1.05;;;;;;;7.18;64.79;102585.91;5156373;28;20035;-78
2022/11/12 02:19:13;;;;;;;1.70;1.60;;;;;;;7.18;65.02;102593.72;5112455;28;20094;-81
2022/11/12 02:21:44;;;;;;;0.65;0.65;;;;;;;7.08;65.30;102597.88;5145506;28;20031;-83
2022/11/12 02:24:14;;;;;;;0.75;0.75;;;;;;;7.07;65.54;102596.13;5147851;28;20041;-81
2022/11/12 02:26:50;;;;;;;0.80;0.80;;;;;;;7.07;65.58;102593.53;5148439;28;20026;-81
2022/11/12 02:29:21;;;;;;;1.23;1.13;;;;;;;7.10;64.90;102593.59;5136834;28;20106;-79
2022/11/12 02:31:51;;;;;;;1.05;1.05;;;;;;;7.11;65.40;102595.34;5119271;28;20034;-80
2022/11/12 02:34:22;;;;;;;1.25;1.15;;;;;;;7.02;65.56;102596.06;5132074;28;20121;-83
2022/11/12 02:36:53;;;;;;;1.55;1.40;;;;;;;7.11;65.16;102599.69;5125518;28;20245;-83
2022/11/12 02:39:23;;;;;;;1.60;1.42;;;;;;;7.04;65.46;102599.56;5144415;28;20070;-80
2022/11/12 02:41:54;;;;;;;0.80;0.80;;;;;;;7.06;65.39;102589.19;5137518;28;20030;-83
2022/11/12 02:44:24;;;;;;;0.70;0.70;;;;;;;7.01;65.30;102589.09;5144637;28;20042;-82
2022/11/12 02:46:55;;;;;;;0.98;0.98;;;;;;;7.06;64.79;102589.19;5143356;28;20050;-82
2022/11/12 02:49:25;;;;;;;0.63;0.63;;;;;;;7.07;65.14;102588.28;5110738;28;20207;-81
2022/11/12 02:51:56;;;;;;;1.08;1.08;;;;;;;7.01;65.09;102596.03;5144488;28;20035;-81
2022/11/12 02:54:26;;;;;;;0.88;0.88;;;;;;;7.00;65.25;102591.66;5131791;28;20623;-83
2022/11/12 02:56:57;;;;;;;0.98;0.98;;;;;;;7.00;65.21;102586.44;5147066;28;20031;-82
2022/11/12 02:59:27;;;;;;;1.00;1.00;;;;;;;6.94;65.02;102587.22;5144307;28;20560;-81
2022/11/12 03:01:58;;;;;;;2.33;2.13;;;;;;;6.95;64.85;102585.50;5147820;28;20031;-82
2022/11/12 03:04:29;;;;;;;2.40;1.30;;;;;;;6.91;65.30;102588.03;5115064;28;20043;-82
2022/11/12 03:06:59;;;;;;;0.60;0.60;;;;;;;6.95;65.39;102588.09;5144215;28;20049;-82
2022/11/12 03:09:30;;;;;;;0.80;0.80;;;;;;;6.89;65.44;102588.84;5141890;28;20109;-83
2022/11/12 03:12:03;;;;;;;0.70;0.70;;;;;;;6.89;64.90;102584.53;5129202;28;20038;-82
2022/11/12 03:14:33;;;;;;;0.57;0.57;;;;;;;6.88;65.50;102581.88;5146838;28;20042;-81
2022/11/12 03:17:04;;;;;;;1.15;1.15;;;;;;;6.86;66.06;102579.25;5149268;28;20031;-80
2022/11/12 03:19:35;;;;;;;1.23;0.63;;;;;;;6.81;66.00;102580.91;5140245;28;20043;-80
2022/11/12 03:22:08;;;;;;;0.50;0.50;;;;;;;6.85;65.41;102579.22;5140800;28;20027;-80
2022/11/12 03:24:39;;;;;;;1.65;1.55;;;;;;;6.84;65.36;102578.34;5153244;28;20557;-83
2022/11/12 03:27:09;;;;;;;1.42;1.33;;;;;;;6.82;65.51;102566.97;5138894;28;20039;-79
2022/11/12 03:29:40;;;;;;;0.50;0.50;;;;;;;6.80;65.37;102568.72;5125876;28;20056;-80
2022/11/12 03:32:11;;;;;;;0.50;0.50;;;;;;;6.82;65.11;102573.94;5130355;28;20039;-86
2022/11/12 03:34:42;;;;;;;0.77;0.77;;;;;;;6.76;65.24;102577.31;5124183;28;20125;-80
2022/11/12 03:37:12;;;;;;;0.43;0.43;;;;;;;6.78;65.74;102566.06;5159380;28;20070;-80
2022/11/12 03:39:43;;;;;;;0.50;0.50;;;;;;;6.77;65.81;102561.72;5145360;28;20038;-81
2022/11/12 03:42:13;;;;;;;1.27;1.13;;;;;;;6.71;66.03;102563.31;5130131;28;20050;-79
2022/11/12 03:44:44;;;;;;;0.52;0.52;;;;;;;6.77;64.99;102573.84;5137923;28;20074;-83
2022/11/12 03:47:14;;;;;;;1.80;1.70;;;;;;;6.79;65.40;102574.78;5138419;28;20097;-79
2022/11/12 03:49:45;;;;;;;1.85;1.75;;;;;;;6.77;65.04;102560.81;5134925;28;20497;-81
2022/11/12 03:52:15;;;;;;;2.72;0.98;;;;;;;6.73;65.56;102564.22;5127513;28;20054;-80
2022/11/12 03:54:46;;;;;;;0.50;0.50;;;;;;;6.66;65.79;102560.63;5128863;28;20034;-82
2022/11/12 03:57:16;;;;;;;0.30;0.30;;;;;;;6.70;65.61;102556.34;5141398;28;20030;-81
2022/11/12 03:59:47;;;;;;;1.45;1.35;;;;;;;6.68;65.51;102548.50;5125908;28;20104;-80
2022/11/12 04:02:17;;;;;;;1.95;1.52;;;;;;;6.67;65.69;102554.56;5108630;28;20119;-82
2022/11/12 04:10:34;;;;;;;2.22;2.03;;;;;;;6.69;65.51;102545.03;5120284;28;20043;-79
2022/11/12 04:21:57;;;;;;;1.08;1.08;;;;;;;6.61;65.25;102544.88;5151707;28;20025;-79
2022/11/12 04:27:29;;;;;;;0.80;0.80;;;;;;;6.58;65.80;102544.81;5135161;28;20501;-80
2022/11/12 04:30:14;;;;;;;0.43;0.43;;;;;;;6.58;65.58;102547.41;5105461;28;20039;-82
2022/11/12 04:32:55;;;;;;;1.27;1.13;;;;;;;6.55;65.86;102544.78;5114562;28;20042;-80
2022/11/12 04:35:26;;;;;;;1.48;1.40;;;;;;;6.56;65.81;102537.81;5106303;28;20283;-82
2022/11/12 04:37:57;;;;;;;0.50;0.50;;;;;;;6.60;65.50;102543.13;5110731;28;20046;-85
2022/11/12 04:46:09;;;;;;;0.75;0.75;;;;;;;6.52;65.89;102544.72;5150964;28;20035;-88
2022/11/12 04:48:40;;;;;;;0.60;0.60;;;;;;;6.51;65.63;102529.03;5148858;28;20070;-81
2022/11/12 04:54:20;;;;;;;1.80;1.70;;;;;;;6.51;65.23;102529.03;5127711;28;20034;-84
2022/11/12 04:56:50;;;;;;;0.68;0.68;;;;;;;6.46;66.02;102531.56;5142138;28;20841;-80
2022/11/12 04:59:21;;;;;;;1.00;1.00;;;;;;;6.45;65.60;102535.00;5109264;28;20101;-79
2022/11/12 05:01:52;;;;;;;0.50;0.50;;;;;;;6.43;65.59;102537.59;5114352;28;20038;-81
2022/11/12 05:04:26;;;;;;;0.63;0.63;;;;;;;6.38;66.06;102525.31;5127396;28;20054;-86
2022/11/12 05:06:57;;;;;;;0.40;0.40;;;;;;;6.26;66.74;102533.78;5131541;28;20031;-84
2022/11/12 05:09:28;;;;;;;1.40;1.30;;;;;;;6.33;66.20;102519.09;5136664;28;20172;-79
2022/11/12 05:11:59;;;;;;;0.73;0.73;;;;;;;6.33;65.76;102520.00;5168484;28;20030;-81
2022/11/12 05:14:30;;;;;;;0.88;0.88;;;;;;;6.31;65.78;102511.28;5131136;28;20089;-81
2022/11/12 05:17:00;;;;;;;0.40;0.40;;;;;;;6.34;65.90;102511.34;5132643;28;20597;-81
2022/11/12 05:19:33;;;;;;;0.75;0.75;;;;;;;6.37;65.95;102516.59;5132000;28;20038;-83
2022/11/12 05:22:04;;;;;;;0.63;0.63;;;;;;;6.31;66.15;102511.28;5147825;28;20042;-79
2022/11/12 05:24:38;;;;;;;0.82;0.82;;;;;;;6.24;65.92;102510.25;5139678;28;20042;-81
2022/11/12 05:27:13;;;;;;;0.65;0.65;;;;;;;6.32;65.71;102509.56;5146010;28;20031;-79
2022/11/12 05:29:44;;;;;;;0.40;0.40;;;;;;;6.28;66.53;102506.88;5137451;28;20070;-80
2022/11/12 05:32:15;;;;;;;0.50;0.50;;;;;;;6.25;66.36;102505.94;5129492;28;20127;-79
2022/11/12 05:34:46;;;;;;;1.60;1.50;;;;;;;6.32;65.53;102513.03;5128631;28;20038;-81
2022/11/12 05:37:16;;;;;;;0.50;0.50;;;;;;;6.30;66.09;102507.78;5112741;28;20035;-80
2022/11/12 05:39:47;;;;;;;0.57;0.57;;;;;;;6.24;66.51;102507.66;5113801;28;20039;-84
2022/11/12 05:42:17;;;;;;;0.47;0.47;;;;;;;6.24;66.12;102505.03;5126789;28;20115;-82
2022/11/12 05:44:48;;;;;;;0.60;0.60;;;;;;;6.23;66.58;102505.03;5114038;28;20517;-84
2022/11/12 05:47:18;;;;;;;1.23;1.13;;;;;;;6.24;65.98;102504.19;5113952;28;20041;-83
2022/11/12 05:49:49;;;;;;;0.50;0.50;;;;;;;6.22;66.34;102505.88;5111630;28;20424;-80
2022/11/12 05:52:19;;;;;;;1.17;1.13;;;;;;;6.25;66.30;102505.94;5142169;28;20474;-82
2022/11/12 05:54:50;;;;;;;0.43;0.43;;;;;;;6.23;66.07;102502.41;5110774;28;20031;-82
2022/11/12 05:57:21;;;;;;;0.98;0.98;;;;;;;6.24;66.14;102492.00;5129582;28;20027;-87
2022/11/12 05:59:51;;;;;;;0.77;0.65;;;;;;;6.17;66.14;102497.97;5122728;28;20062;-81
2022/11/12 06:02:22;;;;;;;1.58;1.48;;;;;;;6.18;65.73;102504.06;5125761;28;20038;-83
2022/11/12 06:04:52;;;;;;;1.13;1.13;;;;;;;6.17;65.75;102497.97;5152950;28;20098;-80
2022/11/12 06:07:23;;;;;;;2.95;2.75;;;;;;;6.22;66.10;102492.84;5155735;28;20046;-85
2022/11/12 06:09:53;;;;;;;1.15;1.15;;;;;;;6.13;66.15;102491.81;5165817;28;20121;-79
2022/11/12 06:12:24;;;;;;;0.68;0.68;;;;;;;6.13;66.02;102489.19;5142494;28;20494;-80
2022/11/12 06:14:55;;;;;;;1.10;1.10;;;;;;;6.12;65.86;102495.25;5122977;28;20630;-82
2022/11/12 06:17:25;;;;;;;0.93;0.93;;;;;;;6.11;65.59;102503.06;5135291;28;20014;-83
2022/11/12 06:19:56;;;;;;;1.73;1.63;;;;;;;6.10;66.13;102496.09;5131392;28;20465;-79
2022/11/12 06:22:26;;;;;;;0.75;0.75;;;;;;;6.09;66.32;102509.97;5116802;28;20015;-80
2022/11/12 06:24:57;;;;;;;1.35;1.25;;;;;;;6.09;66.30;102509.97;5128632;28;20046;-84
2022/11/12 06:27:27;;;;;;;1.85;1.00;;;;;;;6.09;66.21;102509.97;5141961;28;20038;-79
2022/11/12 06:29:58;;;;;;;1.00;1.00;;;;;;;6.07;66.23;102506.47;5108342;28;20054;-79
2022/11/12 06:32:29;;;;;;;0.30;0.30;;;;;;;6.08;65.69;102518.63;5124126;28;20027;-82
2022/11/12 06:34:59;;;;;;;0.57;0.57;;;;;;;6.06;66.02;102513.38;5127326;28;20157;-82
2022/11/12 06:37:30;;;;;;;2.15;0.82;;;;;;;6.05;66.36;102518.56;5141473;28;20035;-82
2022/11/12 06:40:01;;;;;;;1.85;0.98;;;;;;;6.03;66.06;102518.56;5106487;28;20073;-81
2022/11/12 06:42:33;;;;;;;0.47;0.47;;;;;;;6.00;66.33;102521.09;5145299;28;20351;-83
2022/11/12 06:45:06;;;;;;;0.87;0.87;;;;;;;6.01;66.06;102538.47;5114502;28;20046;-80
2022/11/12 06:47:37;;;;;;;1.27;1.27;;;;;;;6.01;65.91;102537.59;5111810;28;20349;-81
2022/11/12 06:50:12;;;;;;;1.02;1.02;;;;;;;5.97;66.90;102541.81;5154631;28;20046;-85
2022/11/12 06:52:43;;;;;;;2.38;1.52;;;;;;;5.97;66.72;102547.94;5137954;28;20061;-78
2022/11/12 06:55:13;;;;;;;2.05;1.90;;;;;;;5.96;66.74;102551.38;5139692;28;20035;-81
2022/11/12 06:57:44;;;;;;;0.73;0.73;;;;;;;6.01;65.98;102556.72;5124905;28;20038;-79
2022/11/12 07:00:17;;;;;;;1.00;0.95;;;;;;;5.96;65.66;102559.19;5111195;28;20039;-81
2022/11/12 07:02:48;;;;;;;4.43;3.63;;;;;;;5.97;66.24;102562.66;5154801;28;20032;-81
2022/11/12 07:05:19;;;;;;;1.23;1.15;;;;;;;5.85;66.65;102557.22;5107328;28;20053;-81
2022/11/12 07:07:49;;;;;;;1.38;1.33;;;;;;;5.88;66.77;102559.84;5127746;28;20066;-79
2022/11/12 07:10:20;;;;;;;2.72;2.20;;;;;;;5.92;66.12;102565.16;5123084;28;20041;-79
2022/11/12 07:12:52;;;;;;;1.60;1.50;;;;;;;5.94;66.32;102567.84;5113055;28;20039;-80
2022/11/12 07:15:23;;;;;;;0.57;0.57;;;;;;;5.94;66.35;102567.84;5135634;28;20709;-80
2022/11/12 07:17:53;;;;;;;1.02;0.90;;;;;;;5.88;66.05;102563.38;5124222;28;20030;-82
2022/11/12 07:20:24;;;;;;;0.73;0.73;;;;;;;5.87;66.00;102559.00;5136691;28;20033;-80
2022/11/12 07:22:59;;;;;;;0.40;0.40;;;;;;;5.86;65.85;102570.25;5107227;28;20101;-83
2022/11/12 07:25:29;;;;;;;0.73;0.73;;;;;;;5.85;66.30;102563.28;5144618;28;20109;-83
2022/11/12 07:28:03;;;;;;;0.80;0.80;;;;;;;5.86;65.81;102565.03;5139279;28;20125;-79
2022/11/12 07:30:34;;;;;;;2.20;2.10;;;;;;;5.90;66.16;102561.69;5121969;28;20485;-80
2022/11/12 07:33:04;;;;;;;4.60;2.25;;;;;;;5.87;65.99;102563.34;5140868;28;20074;-80
2022/11/12 07:35:35;;;;;;;3.22;2.00;;;;;;;5.86;66.49;102564.19;5143543;28;20367;-80
2022/11/12 07:38:05;;;;;;;0.70;0.70;;;;;;;5.89;66.20;102561.63;5135036;28;20645;-85
2022/11/12 07:40:36;;;;;;;0.65;0.65;;;;;;;5.90;66.52;102555.56;5121831;28;20466;-81
2022/11/12 07:43:09;;;;;;;0.95;0.95;;;;;;;5.89;66.36;102556.41;5134718;28;20022;-80
2022/11/12 07:45:40;;;;;;;1.08;0.63;;;;;;;5.89;66.60;102548.59;5118019;28;20533;-79
2022/11/12 07:48:10;;;;;;;1.58;1.48;;;;;;;5.87;67.21;102545.97;5117373;28;20178;-82
2022/11/12 07:50:41;;;;;;;0.93;0.93;;;;;;;5.93;66.41;102535.66;5110341;28;20114;-79
2022/11/12 07:53:14;;;;;;;1.50;1.45;;;;;;;5.94;66.74;102547.00;5141168;28;20053;-80
2022/11/12 07:55:55;;;;;;;0.80;0.80;;;;;;;5.92;66.96;102538.25;5153218;28;20042;-80
2022/11/12 07:58:28;;;;;;;1.42;1.33;;;;;;;5.90;67.03;102551.25;5151618;28;20046;-81
2022/11/12 08:01:24;;;;;;;0.95;0.95;;;;;;;5.91;67.20;102541.69;5129075;28;20053;-79
2022/11/12 08:03:56;;;;;;;1.50;1.40;;;;;;;5.84;68.68;102545.88;5135328;28;20042;-79
2022/11/12 08:06:28;;;;;;;0.80;0.80;;;;;;;5.84;68.68;102548.50;5130938;28;20408;-80
2022/11/12 08:09:01;;;;;;;0.45;0.45;;;;;;;5.88;68.65;102554.66;5118328;28;20109;-80
2022/11/12 08:11:32;;;;;;;;;;;;;;;5.90;70.26;102553.88;5135453;28;20223;-81
2022/11/12 08:14:03;;;;;;;0.82;0.82;;;;;;;5.94;70.67;102558.28;5143544;28;19929;-79
2022/11/12 08:16:33;;;;;;;0.80;0.80;;;;;;;5.95;70.29;102552.22;5124877;28;20238;-86
2022/11/12 08:19:07;;;;;;;0.30;0.30;;;;;;;5.98;70.00;102561.81;5126566;28;20465;-83
2022/11/12 08:21:38;;;;;;;1.08;1.05;;;;;;;6.08;74.35;102558.59;5102590;28;20037;-87
2022/11/12 08:24:09;;;;;;;2.47;2.25;;;;;;;6.05;72.09;102570.69;5137873;28;20070;-85
2022/11/12 08:26:39;;;;;;;1.33;1.23;;;;;;;6.10;71.61;102574.28;5100290;28;20572;-84
2022/11/12 08:29:10;;;;;;;0.60;0.60;;;;;;;6.21;73.79;102569.28;5123062;28;20555;-80
2022/11/12 08:31:41;;;;;;;0.40;0.40;;;;;;;6.26;71.71;102573.75;5127065;28;20035;-85
2022/11/12 08:34:12;;;;;;;1.77;1.67;;;;;;;6.30;75.67;102567.75;5132584;28;20105;-80
2022/11/12 08:36:42;;;;;;;0.40;0.40;;;;;;;6.28;74.49;102571.19;5133016;28;20035;-80
2022/11/12 08:39:13;;;;;;;0.55;0.55;;;;;;;6.36;77.30;102581.75;5134550;28;20113;-79
2022/11/12 08:41:43;;;;;;;1.15;1.15;;;;;;;6.46;76.88;102581.09;5119814;28;20236;-81
2022/11/12 08:44:14;;;;;;;0.60;0.60;;;;;;;6.51;77.62;102576.84;5135405;28;20078;-82
2022/11/12 08:46:44;;;;;;;1.02;1.02;;;;;;;6.54;77.74;102576.03;5153648;28;20038;-81
2022/11/12 08:49:15;;;;;;;1.08;1.08;;;;;;;6.45;80.09;102575.00;5119055;28;20073;-80
2022/11/12 08:51:45;;;;;;;0.68;0.68;;;;;;;6.50;78.53;102579.44;5123418;28;20505;-79
2022/11/12 08:54:16;;;;;;;0.50;0.50;;;;;;;6.56;78.29;102579.53;5121702;28;20066;-83
2022/11/12 08:56:47;;;;;;;1.35;1.25;;;;;;;6.55;77.78;102581.28;5122643;28;20034;-80
2022/11/12 08:59:18;;;;;;;1.83;1.73;;;;;;;6.57;77.80;102573.47;5120495;28;20046;-80
2022/11/12 09:01:49;;;;;;;0.70;0.70;;;;;;;6.61;77.70;102572.72;5122419;28;20027;-84
2022/11/12 09:04:20;;;;;;;0.40;0.40;;;;;;;6.63;78.24;102568.38;5135765;28;20058;-80
2022/11/12 09:06:50;;;;;;;0.85;0.85;;;;;;;6.69;76.80;102572.84;5135286;28;20780;-80
2022/11/12 09:09:21;;;;;;;1.45;0.95;;;;;;;6.75;77.49;102576.44;5095885;28;20121;-80
2022/11/12 09:11:51;;;;;;;0.30;0.30;;;;;;;6.79;76.58;102566.94;5122451;28;20022;-82
2022/11/12 09:14:22;;;;;;;0.77;0.77;;;;;;;6.88;75.97;102572.34;5133272;28;20121;-82
2022/11/12 09:16:53;;;;;;;1.05;1.05;;;;;;;6.89;76.83;102567.97;5138158;28;20135;-84
2022/11/12 09:19:24;;;;;;;0.65;0.65;;;;;;;6.91;78.07;102566.28;5132497;28;20831;-81
2022/11/12 09:21:55;;;;;;;2.83;1.27;;;;;;;6.97;76.95;102566.38;5135322;28;20030;-80
2022/11/12 09:24:25;;;;;;;2.10;1.13;;;;;;;7.02;78.05;102563.84;5115042;28;20042;-80
2022/11/12 09:26:56;;;;;;;1.40;1.30;;;;;;;7.06;78.14;102563.94;5121367;28;20027;-82
2022/11/12 09:29:27;;;;;;;1.40;1.30;;;;;;;7.14;76.93;102566.69;5122969;28;20114;-81
2022/11/12 09:31:58;;;;;;;1.60;1.33;;;;;;;7.17;78.07;102571.94;5108020;28;20041;-80
2022/11/12 09:34:29;;;;;;;0.60;0.60;;;;;;;7.17;78.11;102558.91;5109070;28;20133;-80
2022/11/12 09:36:59;;;;;;;0.50;0.50;;;;;;;7.21;77.18;102560.72;5124162;28;20038;-79
2022/11/12 09:39:30;;;;;;;0.50;0.50;;;;;;;7.24;78.41;102571.19;5122929;28;20133;-79
2022/11/12 09:42:07;;;;;;;0.60;0.60;;;;;;;7.25;78.36;102566.88;5116283;28;20520;-79
2022/11/12 09:44:40;;;;;;;0.68;0.68;;;;;;;7.34;77.04;102571.34;5107231;28;20158;-79
2022/11/12 09:47:44;;;;;;;0.65;0.65;;;;;;;7.42;76.65;102577.56;5143407;28;20529;-81
2022/11/12 09:50:24;;;;;;;0.40;0.40;;;;;;;7.45;77.76;102574.13;5118392;28;20435;-80
2022/11/12 09:53:13;;;;;;;1.05;0.98;;;;;;;7.45;77.82;102575.03;5127632;28;20019;-79
2022/11/12 09:55:49;;;;;;;0.90;0.90;;;;;;;7.52;77.11;102571.66;5126730;28;20027;-79
2022/11/12 09:58:19;;;;;;;0.63;0.63;;;;;;;7.60;78.43;102568.25;5127224;28;20445;-79
2022/11/12 10:01:02;;;;;;;0.75;0.75;;;;;;;7.59;77.91;102563.88;5139943;28;20029;-79
2022/11/12 10:03:51;;;;;;;0.55;0.55;;;;;;;7.64;78.75;102567.47;5108708;28;20049;-79
2022/11/12 10:06:26;;;;;;;1.13;1.02;;;;;;;7.67;78.79;102559.66;5145552;28;20490;-79
2022/11/12 10:09:10;;;;;;;0.85;0.80;;;;;;;7.75;77.87;102558.03;5127255;28;20050;-80
2022/11/12 10:16:41;;;;;;;0.63;0.63;;;;;;;7.82;79.31;102557.25;5157850;28;20065;-81
2022/11/12 10:18:01;;;;;;;0.93;0.90;;;;;;;7.91;78.55;102559.13;5136560;28;20054;-81
2022/11/12 10:20:55;;;;;;;3.80;1.80;;;;;;;7.95;78.79;102550.47;5121953;28;20117;-79
2022/11/12 10:23:39;;;;;;;0.60;0.60;;;;;;;7.97;79.44;102546.16;5124279;28;20042;-82
2022/11/12 10:26:20;;;;;;;1.27;1.25;;;;;;;8.01;79.73;102550.56;5125013;28;20038;-80
2022/11/12 10:28:56;;;;;;;0.73;0.73;;;;;;;8.04;79.42;102550.59;5134932;28;20039;-79
2022/11/12 10:31:27;;;;;;;0.50;0.50;;;;;;;8.06;79.26;102547.97;5142844;28;20787;-80
2022/11/12 10:34:16;;;;;;;1.25;1.15;;;;;;;8.14;78.69;102546.34;5125227;28;20133;-79
2022/11/12 10:37:11;;;;;;;1.17;1.10;;;;;;;8.18;79.66;102540.31;5122871;28;20031;-79
2022/11/12 10:39:46;;;;;;;1.15;1.15;;;;;;;8.27;77.87;102546.50;5121985;28;20043;-79
2022/11/12 10:42:19;;;;;;;1.55;1.45;;;;;;;8.34;78.18;102532.63;5125704;28;20054;-81
2022/11/12 10:44:50;;;;;;;1.38;1.33;;;;;;;8.36;78.07;102536.16;5140614;28;20035;-78
2022/11/12 10:47:30;;;;;;;1.08;1.08;;;;;;;8.43;77.57;102537.97;5144550;28;20105;-81
2022/11/12 10:50:10;;;;;;;0.70;0.70;;;;;;;8.48;78.70;102522.38;5141388;28;20208;-79
2022/11/12 10:53:05;;;;;;;1.05;1.05;;;;;;;8.55;79.50;102518.94;5125497;28;20034;-78
2022/11/12 10:55:52;;;;;;;0.60;0.60;;;;;;;8.59;79.17;102523.38;5137368;28;20141;-81
2022/11/12 10:58:23;;;;;;;0.20;0.20;;;;;;;8.68;79.19;102506.88;5130673;28;20057;-78
2022/11/12 11:01:01;;;;;;;1.95;1.52;;;;;;;8.74;78.34;102506.91;5123951;28;20039;-82
2022/11/12 11:03:45;;;;;;;1.02;0.82;;;;;;;8.81;78.80;102508.72;5152526;28;20532;-79
2022/11/12 11:06:16;;;;;;;1.55;1.00;;;;;;;8.85;78.31;102508.75;5123339;28;20038;-78
2022/11/12 11:08:49;;;;;;;0.63;0.63;;;;;;;8.90;77.88;102513.19;5145491;28;20041;-83
2022/11/12 11:11:25;;;;;;;1.42;1.30;;;;;;;8.93;78.16;102509.69;5137860;28;20039;-78
2022/11/12 11:14:17;;;;;;;0.63;0.63;;;;;;;8.95;78.39;102516.69;5125016;28;20045;-78
2022/11/12 11:16:50;;;;;;;0.73;0.73;;;;;;;9.02;77.94;102515.03;5120183;28;20059;-79
2022/11/12 11:19:21;;;;;;;1.15;1.05;;;;;;;9.12;78.16;102516.84;5122048;28;20996;-78
2022/11/12 11:22:06;;;;;;;0.40;0.40;;;;;;;9.16;77.97;102514.25;5103352;28;20035;-79
2022/11/12 11:24:59;;;;;;;1.05;1.05;;;;;;;9.29;78.11;102506.50;5103466;28;20123;-78
2022/11/12 11:27:54;;;;;;;0.60;0.60;;;;;;;9.35;77.51;102503.03;5132449;28;20402;-78
2022/11/12 11:30:24;;;;;;;0.47;0.47;;;;;;;9.42;78.13;102491.72;5133960;28;20138;-79
2022/11/12 11:33:04;;;;;;;1.20;1.10;;;;;;;9.47;77.95;102499.63;5137083;28;20099;-80
2022/11/12 11:35:46;;;;;;;0.35;0.35;;;;;;;9.48;77.48;102500.47;5141522;28;20118;-78
2022/11/12 11:38:23;;;;;;;3.17;0.80;;;;;;;9.56;78.03;102491.81;5133222;28;20043;-82
2022/11/12 11:41:15;;;;;;;1.58;1.17;;;;;;;9.64;77.72;102491.84;5120291;28;20387;-81
2022/11/12 11:44:10;;;;;;;0.60;0.60;;;;;;;9.80;77.06;102491.91;5133989;28;20031;-79
2022/11/12 11:46:45;;;;;;;0.65;0.65;;;;;;;9.82;76.95;102493.69;5115576;28;20041;-79
2022/11/12 11:49:28;;;;;;;1.08;1.02;;;;;;;9.85;76.74;102500.69;5107337;28;20473;-78
2022/11/12 11:52:29;;;;;;;0.43;0.43;;;;;;;9.93;76.62;102493.72;5108752;28;20057;-79
2022/11/12 11:55:06;;;;;;;0.30;0.30;;;;;;;10.08;75.54;102493.78;5124713;28;20038;-82
2022/11/12 11:57:46;;;;;;;3.00;0.90;;;;;;;10.09;75.49;102489.41;5151379;28;20027;-80
2022/11/12 12:00:28;;;;;;;3.72;1.58;;;;;;;10.18;74.69;102484.19;5153277;28;20039;-82
2022/11/12 12:03:16;;;;;;;0.63;0.63;;;;;;;10.23;75.23;102485.09;5119225;28;20023;-78
2022/11/12 12:05:53;;;;;;;0.57;0.57;;;;;;;10.29;74.95;102481.59;5125065;28;20063;-79
2022/11/12 12:08:48;;;;;;;0.60;0.60;;;;;;;10.30;75.00;102472.84;5150421;28;20046;-79
2022/11/12 12:11:33;;;;;;;0.30;0.30;;;;;;;10.42;74.16;102471.16;5137265;28;20035;-78
2022/11/12 12:14:39;;;;;;;0.38;0.38;;;;;;;10.44;74.26;102470.28;5110780;28;20069;-79
2022/11/12 12:17:39;;;;;;;0.98;0.63;;;;;;;10.51;74.20;102471.19;5122153;28;20035;-79
2022/11/12 12:20:22;;;;;;;0.40;0.40;;;;;;;10.57;74.03;102465.94;5126753;28;20043;-78
2022/11/12 12:23:03;;;;;;;0.30;0.30;;;;;;;10.62;74.19;102468.56;5130991;28;20131;-79
2022/11/12 12:25:37;;;;;;;0.40;0.40;;;;;;;10.64;73.69;102467.69;5135164;28;20046;-78
2022/11/12 12:28:41;;;;;;;0.30;0.30;;;;;;;10.76;73.18;102464.19;5152649;28;20038;-79
2022/11/12 12:31:19;;;;;;;0.93;0.77;;;;;;;10.80;73.67;102462.44;5116612;28;20043;-77
2022/11/12 12:33:56;;;;;;;0.30;0.30;;;;;;;10.84;73.31;102458.94;5131384;28;20043;-78
2022/11/12 12:36:49;;;;;;;0.63;0.63;;;;;;;10.91;72.83;102450.19;5135858;28;20034;-77